sensor_id;sensor_type;location;lat;lon;timestamp;P1;durP1;ratioP1;P2;durP2;ratioP2
77733;SDS011;66902;41.720;44.796;2024-03-29T00:01:56;25.80;;;11.60;;
77733;SDS011;66902;41.720;44.796;2024-03-29T00:04:28;17.90;;;11.00;;
77733;SDS011;66902;41.720;44.796;2024-03-29T00:07:02;18.20;;;9.60;;
77733;SDS011;66902;41.720;44.796;2024-03-29T00:09:35;22.50;;;9.40;;
77733;SDS011;66902;41.720;44.796;2024-03-29T00:12:08;19.80;;;10.00;;
77733;SDS011;66902;41.720;44.796;2024-03-29T00:14:42;23.10;;;11.40;;
77733;SDS011;66902;41.720;44.796;2024-03-29T00:17:17;21.20;;;11.20;;
77733;SDS011;66902;41.720;44.796;2024-03-29T00:19:51;19.00;;;10.60;;
77733;SDS011;66902;41.720;44.796;2024-03-29T00:22:24;19.90;;;10.80;;
77733;SDS011;66902;41.720;44.796;2024-03-29T00:24:58;15.20;;;10.20;;
77733;SDS011;66902;41.720;44.796;2024-03-29T00:27:31;17.40;;;9.70;;
77733;SDS011;66902;41.720;44.796;2024-03-29T00:30:05;16.50;;;8.90;;
77733;SDS011;66902;41.720;44.796;2024-03-29T00:32:39;18.00;;;9.20;;
77733;SDS011;66902;41.720;44.796;2024-03-29T00:35:11;18.00;;;8.60;;
77733;SDS011;66902;41.720;44.796;2024-03-29T00:37:44;15.50;;;9.00;;
77733;SDS011;66902;41.720;44.796;2024-03-29T00:40:18;19.60;;;8.90;;
77733;SDS011;66902;41.720;44.796;2024-03-29T00:42:51;16.60;;;8.90;;
77733;SDS011;66902;41.720;44.796;2024-03-29T00:45:24;13.70;;;7.30;;
77733;SDS011;66902;41.720;44.796;2024-03-29T00:48:02;24.60;;;10.10;;
77733;SDS011;66902;41.720;44.796;2024-03-29T00:50:36;22.20;;;10.30;;
77733;SDS011;66902;41.720;44.796;2024-03-29T00:53:09;13.30;;;8.50;;
77733;SDS011;66902;41.720;44.796;2024-03-29T00:55:42;19.00;;;11.20;;
77733;SDS011;66902;41.720;44.796;2024-03-29T00:58:15;20.50;;;10.70;;
77733;SDS011;66902;41.720;44.796;2024-03-29T01:00:48;14.30;;;10.30;;
77733;SDS011;66902;41.720;44.796;2024-03-29T01:03:22;21.50;;;9.70;;
77733;SDS011;66902;41.720;44.796;2024-03-29T01:05:58;18.40;;;10.10;;
77733;SDS011;66902;41.720;44.796;2024-03-29T01:08:31;19.20;;;9.80;;
77733;SDS011;66902;41.720;44.796;2024-03-29T01:11:03;18.90;;;9.90;;
77733;SDS011;66902;41.720;44.796;2024-03-29T01:13:37;15.20;;;10.50;;
77733;SDS011;66902;41.720;44.796;2024-03-29T01:16:10;19.60;;;10.80;;
77733;SDS011;66902;41.720;44.796;2024-03-29T01:18:44;18.10;;;8.80;;
77733;SDS011;66902;41.720;44.796;2024-03-29T01:21:17;15.70;;;9.50;;
77733;SDS011;66902;41.720;44.796;2024-03-29T01:23:51;20.00;;;9.90;;
77733;SDS011;66902;41.720;44.796;2024-03-29T01:26:24;14.90;;;8.30;;
77733;SDS011;66902;41.720;44.796;2024-03-29T01:28:57;15.40;;;8.30;;
77733;SDS011;66902;41.720;44.796;2024-03-29T01:31:30;14.30;;;9.50;;
77733;SDS011;66902;41.720;44.796;2024-03-29T01:34:05;11.50;;;8.60;;
77733;SDS011;66902;41.720;44.796;2024-03-29T01:36:38;26.50;;;8.50;;
77733;SDS011;66902;41.720;44.796;2024-03-29T01:39:11;14.50;;;8.90;;
77733;SDS011;66902;41.720;44.796;2024-03-29T01:41:46;14.50;;;10.00;;
77733;SDS011;66902;41.720;44.796;2024-03-29T01:44:20;17.50;;;10.70;;
77733;SDS011;66902;41.720;44.796;2024-03-29T01:46:53;14.20;;;9.70;;
77733;SDS011;66902;41.720;44.796;2024-03-29T01:49:26;18.20;;;11.50;;
77733;SDS011;66902;41.720;44.796;2024-03-29T01:52:00;24.10;;;12.50;;
77733;SDS011;66902;41.720;44.796;2024-03-29T01:54:34;17.70;;;11.10;;
77733;SDS011;66902;41.720;44.796;2024-03-29T01:57:07;20.10;;;12.40;;
77733;SDS011;66902;41.720;44.796;2024-03-29T01:59:41;21.30;;;10.40;;
77733;SDS011;66902;41.720;44.796;2024-03-29T02:02:15;17.40;;;11.10;;
77733;SDS011;66902;41.720;44.796;2024-03-29T02:04:49;16.60;;;11.80;;
77733;SDS011;66902;41.720;44.796;2024-03-29T02:07:22;18.60;;;12.70;;
77733;SDS011;66902;41.720;44.796;2024-03-29T02:09:56;30.00;;;15.40;;
77733;SDS011;66902;41.720;44.796;2024-03-29T02:12:29;29.10;;;16.00;;
77733;SDS011;66902;41.720;44.796;2024-03-29T02:15:03;17.90;;;11.20;;
77733;SDS011;66902;41.720;44.796;2024-03-29T02:17:36;17.10;;;10.80;;
77733;SDS011;66902;41.720;44.796;2024-03-29T02:20:11;16.80;;;9.30;;
77733;SDS011;66902;41.720;44.796;2024-03-29T02:23:06;18.20;;;10.30;;
77733;SDS011;66902;41.720;44.796;2024-03-29T02:25:40;23.00;;;11.80;;
77733;SDS011;66902;41.720;44.796;2024-03-29T02:28:13;17.10;;;10.90;;
77733;SDS011;66902;41.720;44.796;2024-03-29T02:30:46;19.80;;;9.70;;
77733;SDS011;66902;41.720;44.796;2024-03-29T02:33:20;13.10;;;8.70;;
77733;SDS011;66902;41.720;44.796;2024-03-29T02:35:54;14.30;;;9.70;;
77733;SDS011;66902;41.720;44.796;2024-03-29T02:38:27;15.20;;;10.00;;
77733;SDS011;66902;41.720;44.796;2024-03-29T02:41:00;21.30;;;9.80;;
77733;SDS011;66902;41.720;44.796;2024-03-29T02:43:34;17.80;;;11.20;;
77733;SDS011;66902;41.720;44.796;2024-03-29T02:46:08;23.80;;;10.60;;
77733;SDS011;66902;41.720;44.796;2024-03-29T02:48:41;17.20;;;10.50;;
77733;SDS011;66902;41.720;44.796;2024-03-29T02:51:15;18.90;;;9.90;;
77733;SDS011;66902;41.720;44.796;2024-03-29T02:53:48;25.00;;;10.80;;
77733;SDS011;66902;41.720;44.796;2024-03-29T02:56:21;34.40;;;11.60;;
77733;SDS011;66902;41.720;44.796;2024-03-29T02:58:56;26.00;;;11.10;;
77733;SDS011;66902;41.720;44.796;2024-03-29T03:01:30;22.10;;;10.60;;
77733;SDS011;66902;41.720;44.796;2024-03-29T03:04:04;29.30;;;12.10;;
77733;SDS011;66902;41.720;44.796;2024-03-29T03:06:37;18.30;;;10.40;;
77733;SDS011;66902;41.720;44.796;2024-03-29T03:09:10;19.90;;;10.60;;
77733;SDS011;66902;41.720;44.796;2024-03-29T03:12:02;17.00;;;9.90;;
77733;SDS011;66902;41.720;44.796;2024-03-29T03:14:35;23.70;;;10.90;;
77733;SDS011;66902;41.720;44.796;2024-03-29T03:17:08;23.40;;;11.50;;
77733;SDS011;66902;41.720;44.796;2024-03-29T03:19:42;19.10;;;10.70;;
77733;SDS011;66902;41.720;44.796;2024-03-29T03:22:15;20.40;;;12.40;;
77733;SDS011;66902;41.720;44.796;2024-03-29T03:24:49;29.30;;;10.60;;
77733;SDS011;66902;41.720;44.796;2024-03-29T03:27:23;19.40;;;8.80;;
77733;SDS011;66902;41.720;44.796;2024-03-29T03:29:56;12.60;;;7.50;;
77733;SDS011;66902;41.720;44.796;2024-03-29T03:32:30;20.10;;;9.20;;
77733;SDS011;66902;41.720;44.796;2024-03-29T03:35:03;12.00;;;9.10;;
77733;SDS011;66902;41.720;44.796;2024-03-29T03:37:38;18.30;;;10.90;;
77733;SDS011;66902;41.720;44.796;2024-03-29T03:40:11;19.70;;;12.40;;
77733;SDS011;66902;41.720;44.796;2024-03-29T03:42:45;29.30;;;11.30;;
77733;SDS011;66902;41.720;44.796;2024-03-29T03:45:18;23.40;;;12.60;;
77733;SDS011;66902;41.720;44.796;2024-03-29T03:47:52;24.10;;;10.00;;
77733;SDS011;66902;41.720;44.796;2024-03-29T03:50:25;14.40;;;9.60;;
77733;SDS011;66902;41.720;44.796;2024-03-29T03:52:58;23.20;;;10.50;;
77733;SDS011;66902;41.720;44.796;2024-03-29T03:55:31;15.50;;;10.20;;
77733;SDS011;66902;41.720;44.796;2024-03-29T03:58:08;17.90;;;9.70;;
77733;SDS011;66902;41.720;44.796;2024-03-29T04:00:42;19.50;;;10.70;;
77733;SDS011;66902;41.720;44.796;2024-03-29T04:03:15;16.80;;;10.10;;
77733;SDS011;66902;41.720;44.796;2024-03-29T04:05:47;15.50;;;8.90;;
77733;SDS011;66902;41.720;44.796;2024-03-29T04:08:20;10.50;;;8.40;;
77733;SDS011;66902;41.720;44.796;2024-03-29T04:10:53;19.40;;;8.30;;
77733;SDS011;66902;41.720;44.796;2024-03-29T04:13:26;24.50;;;9.00;;
77733;SDS011;66902;41.720;44.796;2024-03-29T04:16:02;9.50;;;7.00;;
77733;SDS011;66902;41.720;44.796;2024-03-29T04:18:37;8.40;;;5.30;;
77733;SDS011;66902;41.720;44.796;2024-03-29T04:21:10;14.80;;;7.20;;
77733;SDS011;66902;41.720;44.796;2024-03-29T04:23:43;8.20;;;6.20;;
77733;SDS011;66902;41.720;44.796;2024-03-29T04:26:16;13.20;;;7.00;;
77733;SDS011;66902;41.720;44.796;2024-03-29T04:28:50;14.70;;;7.20;;
77733;SDS011;66902;41.720;44.796;2024-03-29T04:31:23;13.10;;;6.20;;
77733;SDS011;66902;41.720;44.796;2024-03-29T04:33:56;11.40;;;6.70;;
77733;SDS011;66902;41.720;44.796;2024-03-29T04:36:30;8.80;;;6.00;;
77733;SDS011;66902;41.720;44.796;2024-03-29T04:39:05;9.00;;;6.70;;
77733;SDS011;66902;41.720;44.796;2024-03-29T04:41:38;18.10;;;6.60;;
77733;SDS011;66902;41.720;44.796;2024-03-29T04:44:11;7.60;;;5.20;;
77733;SDS011;66902;41.720;44.796;2024-03-29T04:46:45;10.60;;;4.60;;
77733;SDS011;66902;41.720;44.796;2024-03-29T04:49:19;10.90;;;4.60;;
77733;SDS011;66902;41.720;44.796;2024-03-29T04:52:00;6.40;;;3.60;;
77733;SDS011;66902;41.720;44.796;2024-03-29T04:54:34;6.10;;;4.80;;
77733;SDS011;66902;41.720;44.796;2024-03-29T04:57:07;9.20;;;4.00;;
77733;SDS011;66902;41.720;44.796;2024-03-29T04:59:43;6.00;;;4.20;;
77733;SDS011;66902;41.720;44.796;2024-03-29T05:02:16;9.50;;;4.10;;
77733;SDS011;66902;41.720;44.796;2024-03-29T05:04:49;9.90;;;4.00;;
77733;SDS011;66902;41.720;44.796;2024-03-29T05:07:26;6.70;;;3.80;;
77733;SDS011;66902;41.720;44.796;2024-03-29T05:09:59;10.40;;;6.30;;
77733;SDS011;66902;41.720;44.796;2024-03-29T05:12:37;5.80;;;3.80;;
77733;SDS011;66902;41.720;44.796;2024-03-29T05:15:10;13.20;;;4.40;;
77733;SDS011;66902;41.720;44.796;2024-03-29T05:17:45;5.30;;;3.40;;
77733;SDS011;66902;41.720;44.796;2024-03-29T05:20:18;5.90;;;3.50;;
77733;SDS011;66902;41.720;44.796;2024-03-29T05:22:51;6.20;;;3.50;;
77733;SDS011;66902;41.720;44.796;2024-03-29T05:25:25;5.60;;;2.00;;
77733;SDS011;66902;41.720;44.796;2024-03-29T05:27:58;7.40;;;4.00;;
77733;SDS011;66902;41.720;44.796;2024-03-29T05:30:31;6.20;;;2.10;;
77733;SDS011;66902;41.720;44.796;2024-03-29T05:35:37;5.50;;;2.20;;
77733;SDS011;66902;41.720;44.796;2024-03-29T05:38:10;3.40;;;2.40;;
77733;SDS011;66902;41.720;44.796;2024-03-29T05:40:43;3.70;;;2.40;;
77733;SDS011;66902;41.720;44.796;2024-03-29T05:43:16;7.80;;;2.30;;
77733;SDS011;66902;41.720;44.796;2024-03-29T05:45:52;7.60;;;3.80;;
77733;SDS011;66902;41.720;44.796;2024-03-29T05:48:25;5.50;;;2.50;;
77733;SDS011;66902;41.720;44.796;2024-03-29T05:50:58;4.00;;;2.60;;
77733;SDS011;66902;41.720;44.796;2024-03-29T05:53:32;6.60;;;2.90;;
77733;SDS011;66902;41.720;44.796;2024-03-29T05:58:37;5.50;;;2.80;;
77733;SDS011;66902;41.720;44.796;2024-03-29T06:01:11;12.00;;;3.20;;
77733;SDS011;66902;41.720;44.796;2024-03-29T06:03:44;12.80;;;4.30;;
77733;SDS011;66902;41.720;44.796;2024-03-29T06:06:17;4.10;;;2.80;;
77733;SDS011;66902;41.720;44.796;2024-03-29T06:08:54;3.80;;;3.20;;
77733;SDS011;66902;41.720;44.796;2024-03-29T06:11:27;4.30;;;3.70;;
77733;SDS011;66902;41.720;44.796;2024-03-29T06:14:01;10.90;;;4.40;;
77733;SDS011;66902;41.720;44.796;2024-03-29T06:16:52;5.80;;;4.70;;
77733;SDS011;66902;41.720;44.796;2024-03-29T06:19:45;7.60;;;4.40;;
77733;SDS011;66902;41.720;44.796;2024-03-29T06:22:20;9.20;;;4.60;;
77733;SDS011;66902;41.720;44.796;2024-03-29T06:24:53;7.10;;;4.00;;
77733;SDS011;66902;41.720;44.796;2024-03-29T06:27:34;6.70;;;4.00;;
77733;SDS011;66902;41.720;44.796;2024-03-29T06:32:41;9.50;;;4.80;;
77733;SDS011;66902;41.720;44.796;2024-03-29T06:37:48;10.00;;;6.90;;
77733;SDS011;66902;41.720;44.796;2024-03-29T06:40:21;6.20;;;5.60;;
77733;SDS011;66902;41.720;44.796;2024-03-29T06:42:55;10.40;;;5.50;;
77733;SDS011;66902;41.720;44.796;2024-03-29T06:45:31;8.10;;;6.50;;
77733;SDS011;66902;41.720;44.796;2024-03-29T06:48:06;8.10;;;5.90;;
77733;SDS011;66902;41.720;44.796;2024-03-29T06:50:39;5.70;;;5.20;;
77733;SDS011;66902;41.720;44.796;2024-03-29T06:53:12;5.60;;;5.00;;
77733;SDS011;66902;41.720;44.796;2024-03-29T06:55:45;8.30;;;5.90;;
77733;SDS011;66902;41.720;44.796;2024-03-29T06:58:19;12.80;;;6.00;;
77733;SDS011;66902;41.720;44.796;2024-03-29T07:00:52;7.70;;;5.90;;
77733;SDS011;66902;41.720;44.796;2024-03-29T07:03:28;9.30;;;6.40;;
77733;SDS011;66902;41.720;44.796;2024-03-29T07:06:01;7.40;;;6.00;;
77733;SDS011;66902;41.720;44.796;2024-03-29T07:08:35;6.10;;;5.10;;
77733;SDS011;66902;41.720;44.796;2024-03-29T07:11:08;9.90;;;5.60;;
77733;SDS011;66902;41.720;44.796;2024-03-29T07:13:41;11.10;;;7.60;;
77733;SDS011;66902;41.720;44.796;2024-03-29T07:16:16;8.00;;;6.10;;
77733;SDS011;66902;41.720;44.796;2024-03-29T07:18:49;7.00;;;6.00;;
77733;SDS011;66902;41.720;44.796;2024-03-29T07:21:23;11.60;;;7.00;;
77733;SDS011;66902;41.720;44.796;2024-03-29T07:23:57;7.80;;;7.10;;
77733;SDS011;66902;41.720;44.796;2024-03-29T07:26:30;7.50;;;6.70;;
77733;SDS011;66902;41.720;44.796;2024-03-29T07:29:03;7.30;;;5.50;;
77733;SDS011;66902;41.720;44.796;2024-03-29T07:31:36;10.30;;;6.90;;
77733;SDS011;66902;41.720;44.796;2024-03-29T07:34:10;6.90;;;6.30;;
77733;SDS011;66902;41.720;44.796;2024-03-29T07:36:43;6.50;;;5.90;;
77733;SDS011;66902;41.720;44.796;2024-03-29T07:39:19;7.50;;;6.30;;
77733;SDS011;66902;41.720;44.796;2024-03-29T07:41:52;15.00;;;6.00;;
77733;SDS011;66902;41.720;44.796;2024-03-29T07:44:26;8.10;;;6.50;;
77733;SDS011;66902;41.720;44.796;2024-03-29T07:46:59;9.70;;;7.40;;
77733;SDS011;66902;41.720;44.796;2024-03-29T07:49:33;8.80;;;6.60;;
77733;SDS011;66902;41.720;44.796;2024-03-29T07:52:07;6.10;;;5.60;;
77733;SDS011;66902;41.720;44.796;2024-03-29T07:54:40;6.20;;;5.40;;
77733;SDS011;66902;41.720;44.796;2024-03-29T07:57:14;7.10;;;5.20;;
77733;SDS011;66902;41.720;44.796;2024-03-29T07:59:50;9.00;;;5.00;;
77733;SDS011;66902;41.720;44.796;2024-03-29T08:02:24;9.00;;;5.30;;
77733;SDS011;66902;41.720;44.796;2024-03-29T08:04:57;10.20;;;6.40;;
77733;SDS011;66902;41.720;44.796;2024-03-29T08:07:33;6.90;;;6.20;;
77733;SDS011;66902;41.720;44.796;2024-03-29T08:10:07;9.60;;;7.20;;
77733;SDS011;66902;41.720;44.796;2024-03-29T08:12:40;6.40;;;5.80;;
77733;SDS011;66902;41.720;44.796;2024-03-29T08:15:13;6.20;;;4.60;;
77733;SDS011;66902;41.720;44.796;2024-03-29T08:17:47;5.40;;;4.90;;
77733;SDS011;66902;41.720;44.796;2024-03-29T08:20:21;6.10;;;4.70;;
77733;SDS011;66902;41.720;44.796;2024-03-29T08:22:59;8.50;;;7.50;;
77733;SDS011;66902;41.720;44.796;2024-03-29T08:25:34;10.20;;;7.00;;
77733;SDS011;66902;41.720;44.796;2024-03-29T08:28:07;11.30;;;6.90;;
77733;SDS011;66902;41.720;44.796;2024-03-29T08:30:40;11.50;;;7.20;;
77733;SDS011;66902;41.720;44.796;2024-03-29T08:33:13;6.50;;;4.50;;
77733;SDS011;66902;41.720;44.796;2024-03-29T08:35:46;8.40;;;5.70;;
77733;SDS011;66902;41.720;44.796;2024-03-29T08:38:20;8.30;;;6.10;;
77733;SDS011;66902;41.720;44.796;2024-03-29T08:40:54;14.50;;;6.40;;
77733;SDS011;66902;41.720;44.796;2024-03-29T08:43:31;12.00;;;7.30;;
77733;SDS011;66902;41.720;44.796;2024-03-29T08:46:06;9.60;;;7.40;;
77733;SDS011;66902;41.720;44.796;2024-03-29T08:48:39;17.90;;;7.30;;
77733;SDS011;66902;41.720;44.796;2024-03-29T08:51:13;17.80;;;10.30;;
77733;SDS011;66902;41.720;44.796;2024-03-29T08:53:47;10.20;;;9.20;;
77733;SDS011;66902;41.720;44.796;2024-03-29T08:56:20;10.30;;;6.90;;
77733;SDS011;66902;41.720;44.796;2024-03-29T08:58:53;11.00;;;7.90;;
77733;SDS011;66902;41.720;44.796;2024-03-29T09:01:26;9.60;;;7.70;;
77733;SDS011;66902;41.720;44.796;2024-03-29T09:03:59;12.50;;;9.00;;
77733;SDS011;66902;41.720;44.796;2024-03-29T09:06:34;11.30;;;7.70;;
77733;SDS011;66902;41.720;44.796;2024-03-29T09:09:09;13.60;;;9.50;;
77733;SDS011;66902;41.720;44.796;2024-03-29T09:11:43;12.70;;;8.50;;
77733;SDS011;66902;41.720;44.796;2024-03-29T09:14:17;13.90;;;10.20;;
77733;SDS011;66902;41.720;44.796;2024-03-29T09:16:50;8.60;;;7.40;;
77733;SDS011;66902;41.720;44.796;2024-03-29T09:19:23;12.80;;;8.80;;
77733;SDS011;66902;41.720;44.796;2024-03-29T09:21:56;13.60;;;8.40;;
77733;SDS011;66902;41.720;44.796;2024-03-29T09:24:29;12.00;;;9.50;;
77733;SDS011;66902;41.720;44.796;2024-03-29T09:27:04;17.60;;;9.40;;
77733;SDS011;66902;41.720;44.796;2024-03-29T09:29:37;12.40;;;8.80;;
77733;SDS011;66902;41.720;44.796;2024-03-29T09:32:12;10.60;;;7.90;;
77733;SDS011;66902;41.720;44.796;2024-03-29T09:34:47;16.60;;;8.20;;
77733;SDS011;66902;41.720;44.796;2024-03-29T09:37:21;11.00;;;8.70;;
77733;SDS011;66902;41.720;44.796;2024-03-29T09:39:57;10.90;;;7.60;;
77733;SDS011;66902;41.720;44.796;2024-03-29T09:42:31;10.40;;;8.80;;
77733;SDS011;66902;41.720;44.796;2024-03-29T09:45:05;12.60;;;9.10;;
77733;SDS011;66902;41.720;44.796;2024-03-29T09:47:40;9.70;;;8.30;;
77733;SDS011;66902;41.720;44.796;2024-03-29T09:50:14;12.10;;;10.10;;
77733;SDS011;66902;41.720;44.796;2024-03-29T09:52:48;14.70;;;8.60;;
77733;SDS011;66902;41.720;44.796;2024-03-29T09:55:22;10.50;;;8.40;;
77733;SDS011;66902;41.720;44.796;2024-03-29T09:57:56;12.10;;;7.40;;
77733;SDS011;66902;41.720;44.796;2024-03-29T10:00:29;12.40;;;7.40;;
77733;SDS011;66902;41.720;44.796;2024-03-29T10:03:05;10.60;;;7.60;;
77733;SDS011;66902;41.720;44.796;2024-03-29T10:05:42;14.90;;;11.40;;
77733;SDS011;66902;41.720;44.796;2024-03-29T10:08:15;16.80;;;9.30;;
77733;SDS011;66902;41.720;44.796;2024-03-29T10:10:48;14.20;;;7.30;;
77733;SDS011;66902;41.720;44.796;2024-03-29T10:13:23;11.50;;;6.70;;
77733;SDS011;66902;41.720;44.796;2024-03-29T10:15:57;10.90;;;7.60;;
77733;SDS011;66902;41.720;44.796;2024-03-29T10:18:33;14.60;;;10.50;;
77733;SDS011;66902;41.720;44.796;2024-03-29T10:21:06;12.70;;;8.80;;
77733;SDS011;66902;41.720;44.796;2024-03-29T10:23:41;8.60;;;7.70;;
77733;SDS011;66902;41.720;44.796;2024-03-29T10:26:21;11.20;;;8.40;;
77733;SDS011;66902;41.720;44.796;2024-03-29T10:28:54;15.50;;;10.10;;
77733;SDS011;66902;41.720;44.796;2024-03-29T10:31:27;13.70;;;10.10;;
77733;SDS011;66902;41.720;44.796;2024-03-29T10:34:04;13.00;;;9.80;;
77733;SDS011;66902;41.720;44.796;2024-03-29T10:39:15;18.80;;;12.80;;
77733;SDS011;66902;41.720;44.796;2024-03-29T10:41:48;16.80;;;11.30;;
77733;SDS011;66902;41.720;44.796;2024-03-29T10:44:25;15.40;;;10.80;;
77733;SDS011;66902;41.720;44.796;2024-03-29T10:46:58;21.70;;;10.80;;
77733;SDS011;66902;41.720;44.796;2024-03-29T10:49:32;16.10;;;10.90;;
77733;SDS011;66902;41.720;44.796;2024-03-29T10:52:07;15.30;;;11.60;;
77733;SDS011;66902;41.720;44.796;2024-03-29T10:54:44;19.50;;;14.10;;
77733;SDS011;66902;41.720;44.796;2024-03-29T10:57:22;18.00;;;11.70;;
77733;SDS011;66902;41.720;44.796;2024-03-29T10:59:57;14.40;;;11.10;;
77733;SDS011;66902;41.720;44.796;2024-03-29T11:02:35;17.00;;;10.60;;
77733;SDS011;66902;41.720;44.796;2024-03-29T11:05:14;14.40;;;10.80;;
77733;SDS011;66902;41.720;44.796;2024-03-29T11:07:48;16.90;;;11.00;;
77733;SDS011;66902;41.720;44.796;2024-03-29T11:10:23;20.60;;;12.50;;
77733;SDS011;66902;41.720;44.796;2024-03-29T11:13:01;19.30;;;11.30;;
77733;SDS011;66902;41.720;44.796;2024-03-29T11:15:38;16.90;;;11.00;;
77733;SDS011;66902;41.720;44.796;2024-03-29T11:18:13;14.30;;;9.30;;
77733;SDS011;66902;41.720;44.796;2024-03-29T11:20:50;16.80;;;9.60;;
77733;SDS011;66902;41.720;44.796;2024-03-29T11:23:25;16.30;;;9.10;;
77733;SDS011;66902;41.720;44.796;2024-03-29T11:25:59;16.30;;;9.10;;
77733;SDS011;66902;41.720;44.796;2024-03-29T11:28:32;13.60;;;8.00;;
77733;SDS011;66902;41.720;44.796;2024-03-29T11:31:07;12.70;;;6.90;;
77733;SDS011;66902;41.720;44.796;2024-03-29T11:33:45;14.00;;;7.40;;
77733;SDS011;66902;41.720;44.796;2024-03-29T11:36:21;19.50;;;8.50;;
77733;SDS011;66902;41.720;44.796;2024-03-29T11:38:57;8.70;;;7.50;;
77733;SDS011;66902;41.720;44.796;2024-03-29T11:41:31;8.90;;;6.50;;
77733;SDS011;66902;41.720;44.796;2024-03-29T11:44:04;16.10;;;11.70;;
77733;SDS011;66902;41.720;44.796;2024-03-29T11:46:38;19.30;;;10.00;;
77733;SDS011;66902;41.720;44.796;2024-03-29T11:49:11;13.30;;;8.40;;
77733;SDS011;66902;41.720;44.796;2024-03-29T11:51:45;17.20;;;8.80;;
77733;SDS011;66902;41.720;44.796;2024-03-29T11:54:18;11.80;;;7.60;;
77733;SDS011;66902;41.720;44.796;2024-03-29T11:59:26;12.60;;;7.90;;
77733;SDS011;66902;41.720;44.796;2024-03-29T12:01:59;10.40;;;6.00;;
77733;SDS011;66902;41.720;44.796;2024-03-29T12:04:33;11.80;;;7.00;;
77733;SDS011;66902;41.720;44.796;2024-03-29T12:07:06;9.40;;;5.70;;
77733;SDS011;66902;41.720;44.796;2024-03-29T12:09:40;14.00;;;7.60;;
77733;SDS011;66902;41.720;44.796;2024-03-29T12:12:13;10.70;;;6.90;;
77733;SDS011;66902;41.720;44.796;2024-03-29T12:14:47;12.20;;;9.20;;
77733;SDS011;66902;41.720;44.796;2024-03-29T12:17:21;12.50;;;8.80;;
77733;SDS011;66902;41.720;44.796;2024-03-29T12:19:59;8.90;;;6.70;;
77733;SDS011;66902;41.720;44.796;2024-03-29T12:22:36;10.50;;;6.60;;
77733;SDS011;66902;41.720;44.796;2024-03-29T12:25:11;9.90;;;6.70;;
77733;SDS011;66902;41.720;44.796;2024-03-29T12:27:46;14.20;;;7.90;;
77733;SDS011;66902;41.720;44.796;2024-03-29T12:30:19;11.70;;;7.50;;
77733;SDS011;66902;41.720;44.796;2024-03-29T12:33:01;10.40;;;7.40;;
77733;SDS011;66902;41.720;44.796;2024-03-29T12:35:36;11.60;;;6.60;;
77733;SDS011;66902;41.720;44.796;2024-03-29T12:38:10;17.90;;;11.20;;
77733;SDS011;66902;41.720;44.796;2024-03-29T12:40:45;11.20;;;6.50;;
77733;SDS011;66902;41.720;44.796;2024-03-29T12:43:20;8.30;;;6.40;;
77733;SDS011;66902;41.720;44.796;2024-03-29T12:45:54;9.60;;;6.70;;
77733;SDS011;66902;41.720;44.796;2024-03-29T12:48:26;21.30;;;12.30;;
77733;SDS011;66902;41.720;44.796;2024-03-29T12:51:01;17.50;;;8.70;;
77733;SDS011;66902;41.720;44.796;2024-03-29T12:53:37;13.20;;;6.90;;
77733;SDS011;66902;41.720;44.796;2024-03-29T12:56:11;19.40;;;8.50;;
77733;SDS011;66902;41.720;44.796;2024-03-29T12:58:44;13.00;;;7.70;;
77733;SDS011;66902;41.720;44.796;2024-03-29T13:01:18;15.00;;;9.50;;
77733;SDS011;66902;41.720;44.796;2024-03-29T13:03:52;12.50;;;7.50;;
77733;SDS011;66902;41.720;44.796;2024-03-29T13:06:25;11.10;;;6.40;;
77733;SDS011;66902;41.720;44.796;2024-03-29T13:08:58;16.30;;;6.70;;
77733;SDS011;66902;41.720;44.796;2024-03-29T13:11:31;9.20;;;7.90;;
77733;SDS011;66902;41.720;44.796;2024-03-29T13:14:05;15.00;;;6.50;;
77733;SDS011;66902;41.720;44.796;2024-03-29T13:16:38;12.00;;;6.30;;
77733;SDS011;66902;41.720;44.796;2024-03-29T13:19:11;10.80;;;6.60;;
77733;SDS011;66902;41.720;44.796;2024-03-29T13:21:44;14.50;;;6.70;;
77733;SDS011;66902;41.720;44.796;2024-03-29T13:24:18;20.20;;;8.70;;
77733;SDS011;66902;41.720;44.796;2024-03-29T13:26:51;10.30;;;6.40;;
77733;SDS011;66902;41.720;44.796;2024-03-29T13:29:24;20.50;;;8.60;;
77733;SDS011;66902;41.720;44.796;2024-03-29T13:31:58;12.20;;;5.90;;
77733;SDS011;66902;41.720;44.796;2024-03-29T13:34:31;27.30;;;10.10;;
77733;SDS011;66902;41.720;44.796;2024-03-29T13:37:05;14.60;;;9.10;;
77733;SDS011;66902;41.720;44.796;2024-03-29T13:39:39;14.00;;;7.70;;
77733;SDS011;66902;41.720;44.796;2024-03-29T13:42:12;15.40;;;7.30;;
77733;SDS011;66902;41.720;44.796;2024-03-29T13:44:45;13.50;;;6.60;;
77733;SDS011;66902;41.720;44.796;2024-03-29T13:47:20;27.40;;;8.60;;
77733;SDS011;66902;41.720;44.796;2024-03-29T13:49:53;12.80;;;7.70;;
77733;SDS011;66902;41.720;44.796;2024-03-29T13:52:26;14.30;;;7.70;;
77733;SDS011;66902;41.720;44.796;2024-03-29T13:54:59;15.50;;;7.10;;
77733;SDS011;66902;41.720;44.796;2024-03-29T13:57:33;20.20;;;10.20;;
77733;SDS011;66902;41.720;44.796;2024-03-29T14:00:08;14.40;;;8.70;;
77733;SDS011;66902;41.720;44.796;2024-03-29T14:02:44;17.70;;;8.90;;
77733;SDS011;66902;41.720;44.796;2024-03-29T14:05:17;14.70;;;7.90;;
77733;SDS011;66902;41.720;44.796;2024-03-29T14:07:50;14.80;;;8.30;;
77733;SDS011;66902;41.720;44.796;2024-03-29T14:10:23;17.80;;;9.40;;
77733;SDS011;66902;41.720;44.796;2024-03-29T14:12:57;12.90;;;6.90;;
77733;SDS011;66902;41.720;44.796;2024-03-29T14:15:31;9.10;;;8.20;;
77733;SDS011;66902;41.720;44.796;2024-03-29T14:18:04;13.90;;;8.30;;
77733;SDS011;66902;41.720;44.796;2024-03-29T14:20:38;12.40;;;7.10;;
77733;SDS011;66902;41.720;44.796;2024-03-29T14:23:11;9.40;;;7.10;;
77733;SDS011;66902;41.720;44.796;2024-03-29T14:28:20;13.90;;;10.40;;
77733;SDS011;66902;41.720;44.796;2024-03-29T14:30:53;18.00;;;8.90;;
77733;SDS011;66902;41.720;44.796;2024-03-29T14:33:27;11.10;;;8.90;;
77733;SDS011;66902;41.720;44.796;2024-03-29T14:36:00;18.50;;;9.50;;
77733;SDS011;66902;41.720;44.796;2024-03-29T14:38:33;14.30;;;8.10;;
77733;SDS011;66902;41.720;44.796;2024-03-29T14:41:07;15.80;;;9.00;;
77733;SDS011;66902;41.720;44.796;2024-03-29T14:43:41;13.70;;;9.80;;
77733;SDS011;66902;41.720;44.796;2024-03-29T14:46:17;22.10;;;10.90;;
77733;SDS011;66902;41.720;44.796;2024-03-29T14:48:51;15.30;;;9.70;;
77733;SDS011;66902;41.720;44.796;2024-03-29T14:51:24;22.20;;;9.70;;
77733;SDS011;66902;41.720;44.796;2024-03-29T14:53:58;16.20;;;10.40;;
77733;SDS011;66902;41.720;44.796;2024-03-29T14:56:33;14.60;;;10.80;;
77733;SDS011;66902;41.720;44.796;2024-03-29T14:59:06;24.60;;;9.90;;
77733;SDS011;66902;41.720;44.796;2024-03-29T15:01:41;15.10;;;10.10;;
77733;SDS011;66902;41.720;44.796;2024-03-29T15:04:15;17.30;;;9.70;;
77733;SDS011;66902;41.720;44.796;2024-03-29T15:06:48;17.00;;;10.80;;
77733;SDS011;66902;41.720;44.796;2024-03-29T15:09:21;23.90;;;12.30;;
77733;SDS011;66902;41.720;44.796;2024-03-29T15:11:54;15.70;;;11.10;;
77733;SDS011;66902;41.720;44.796;2024-03-29T15:14:27;18.30;;;11.10;;
77733;SDS011;66902;41.720;44.796;2024-03-29T15:17:00;18.40;;;11.30;;
77733;SDS011;66902;41.720;44.796;2024-03-29T15:19:36;13.00;;;10.90;;